createdAt,value
2018-02-25T00:00:06.068Z,0.00
2018-02-25T00:01:06.511Z,0.00
2018-02-25T00:02:06.903Z,0.00
2018-02-25T00:03:07.310Z,0.00
2018-02-25T00:04:07.736Z,0.00
2018-02-25T00:05:08.149Z,0.00
2018-02-25T00:06:08.559Z,0.00
2018-02-25T00:07:08.970Z,0.00
2018-02-25T00:08:09.385Z,0.00
2018-02-25T00:09:09.818Z,0.00
2018-02-25T00:10:10.216Z,0.00
2018-02-25T00:11:10.629Z,0.00
2018-02-25T00:12:11.044Z,0.00
2018-02-25T00:13:11.459Z,0.00
2018-02-25T00:14:11.889Z,0.00
2018-02-25T00:15:12.291Z,0.00
2018-02-25T00:16:12.702Z,0.00
2018-02-25T00:17:13.119Z,0.00
2018-02-25T00:18:13.534Z,0.00
2018-02-25T00:19:13.947Z,0.00
2018-02-25T00:20:14.363Z,0.00
2018-02-25T00:21:14.780Z,0.00
2018-02-25T00:22:15.192Z,0.00
2018-02-25T00:23:15.608Z,0.00
2018-02-25T00:24:16.020Z,0.00
2018-02-25T00:25:16.438Z,0.00
2018-02-25T00:26:16.851Z,0.00
2018-02-25T00:27:17.277Z,0.00
2018-02-25T00:28:17.685Z,0.00
2018-02-25T00:29:18.097Z,0.00
2018-02-25T00:30:18.512Z,0.00
2018-02-25T00:31:18.933Z,0.00
2018-02-25T00:32:19.342Z,0.00
2018-02-25T00:33:19.774Z,0.00
2018-02-25T00:34:20.184Z,0.00
2018-02-25T00:35:20.659Z,0.00
2018-02-25T00:36:21.002Z,0.00
2018-02-25T00:37:21.425Z,0.00
2018-02-25T00:38:21.845Z,0.00
2018-02-25T00:39:22.249Z,0.00
2018-02-25T00:40:22.659Z,0.00
2018-02-25T00:41:23.085Z,0.00
2018-02-25T00:42:23.497Z,0.00
2018-02-25T00:43:23.905Z,0.00
2018-02-25T00:44:24.317Z,0.00
2018-02-25T00:45:24.744Z,0.00
2018-02-25T00:46:25.155Z,0.00
2018-02-25T00:47:25.578Z,0.00
2018-02-25T00:48:25.988Z,0.00
2018-02-25T00:49:26.390Z,0.00
2018-02-25T00:50:26.829Z,0.00
2018-02-25T00:51:27.223Z,0.00
2018-02-25T00:52:27.640Z,0.00
2018-02-25T00:53:28.059Z,0.00
2018-02-25T00:54:28.465Z,0.00
2018-02-25T00:55:28.891Z,0.00
2018-02-25T00:56:29.298Z,0.00
2018-02-25T00:57:29.713Z,0.00
2018-02-25T00:58:30.128Z,0.00
2018-02-25T00:59:30.545Z,0.00
2018-02-25T01:00:30.960Z,0.00
2018-02-25T01:01:31.372Z,0.00
2018-02-25T01:02:31.791Z,0.00
2018-02-25T01:03:32.203Z,0.00
2018-02-25T01:04:32.618Z,0.00
2018-02-25T01:05:33.032Z,0.00
2018-02-25T01:06:33.450Z,0.00
2018-02-25T01:07:33.865Z,0.00
2018-02-25T01:08:34.275Z,0.00
2018-02-25T01:09:34.718Z,0.00
2018-02-25T01:10:35.117Z,0.00
2018-02-25T01:11:35.536Z,0.00
2018-02-25T01:12:35.939Z,0.00
2018-02-25T01:13:36.358Z,0.00
2018-02-25T01:14:36.766Z,0.00
2018-02-25T01:15:37.191Z,0.00
2018-02-25T01:16:37.599Z,0.00
2018-02-25T01:17:38.011Z,0.00
2018-02-25T01:18:38.431Z,0.00
2018-02-25T01:19:38.836Z,0.00
2018-02-25T01:20:39.252Z,0.00
2018-02-25T01:21:39.667Z,0.00
2018-02-25T01:22:40.081Z,0.00
2018-02-25T01:23:40.497Z,0.00
2018-02-25T01:24:40.910Z,0.00
2018-02-25T01:25:41.331Z,0.00
2018-02-25T01:26:41.740Z,0.00
2018-02-25T01:27:42.154Z,0.00
2018-02-25T01:28:42.571Z,0.00
2018-02-25T01:29:42.985Z,0.00
2018-02-25T01:30:43.403Z,0.00
2018-02-25T01:31:43.822Z,0.00
2018-02-25T01:32:44.238Z,0.00
2018-02-25T01:33:44.643Z,0.00
2018-02-25T01:34:45.061Z,0.00
2018-02-25T01:35:45.469Z,0.00
2018-02-25T01:36:45.904Z,0.00
2018-02-25T01:37:46.307Z,0.00
2018-02-25T01:38:46.717Z,0.00
2018-02-25T01:39:47.135Z,0.00
2018-02-25T01:40:47.544Z,0.00
2018-02-25T01:41:47.959Z,0.00
2018-02-25T01:42:48.374Z,0.00
2018-02-25T01:43:48.801Z,0.00
2018-02-25T01:44:49.202Z,0.00
2018-02-25T01:45:49.623Z,0.00
2018-02-25T01:46:50.034Z,0.00
2018-02-25T01:47:50.449Z,0.00
2018-02-25T01:48:50.864Z,0.00
2018-02-25T01:49:51.276Z,0.00
2018-02-25T01:50:51.692Z,0.00
2018-02-25T01:51:52.106Z,0.00
2018-02-25T01:52:52.524Z,0.00
2018-02-25T01:53:52.934Z,0.00
2018-02-25T01:54:53.347Z,0.00
2018-02-25T01:55:53.763Z,0.00
2018-02-25T01:56:54.176Z,0.00
2018-02-25T01:57:54.594Z,0.00
2018-02-25T01:58:55.008Z,0.00
2018-02-25T01:59:55.424Z,0.00
2018-02-25T02:00:55.832Z,0.00
2018-02-25T02:01:56.260Z,0.00
2018-02-25T02:02:56.663Z,0.00
2018-02-25T02:03:57.076Z,0.00
2018-02-25T02:04:57.494Z,0.00
2018-02-25T02:05:57.905Z,0.00
2018-02-25T02:06:58.316Z,0.00
2018-02-25T02:07:58.735Z,0.00
2018-02-25T02:08:59.148Z,0.00
2018-02-25T02:09:59.565Z,0.00
2018-02-25T02:10:59.976Z,0.00
2018-02-25T02:12:00.394Z,0.00
2018-02-25T02:13:00.808Z,0.00
2018-02-25T02:14:01.228Z,0.00
2018-02-25T02:15:01.632Z,0.00
2018-02-25T02:16:02.045Z,0.00
2018-02-25T02:17:02.459Z,0.00
2018-02-25T02:18:02.879Z,0.00
2018-02-25T02:19:03.306Z,0.00
2018-02-25T02:20:03.701Z,0.00
2018-02-25T02:21:04.118Z,0.00
2018-02-25T02:22:04.531Z,0.00
2018-02-25T02:23:04.981Z,0.00
2018-02-25T02:24:05.362Z,0.00
2018-02-25T02:25:05.776Z,0.00
2018-02-25T02:26:06.283Z,0.00
2018-02-25T02:27:06.599Z,0.00
2018-02-25T02:28:07.013Z,0.00
2018-02-25T02:29:07.426Z,0.00
2018-02-25T02:30:07.843Z,0.00
2018-02-25T02:31:08.257Z,0.00
2018-02-25T02:32:08.674Z,0.00
2018-02-25T02:33:09.088Z,0.00
2018-02-25T02:34:09.505Z,0.00
2018-02-25T02:35:09.913Z,0.00
2018-02-25T02:36:10.326Z,0.00
2018-02-25T02:37:10.745Z,0.00
2018-02-25T02:38:11.158Z,0.00
2018-02-25T02:39:11.569Z,0.00
2018-02-25T02:40:11.990Z,0.00
2018-02-25T02:41:12.401Z,0.00
2018-02-25T02:42:12.818Z,0.00
2018-02-25T02:43:13.225Z,0.00
2018-02-25T02:44:13.636Z,0.00
2018-02-25T02:45:14.051Z,0.00
2018-02-25T02:46:14.463Z,0.00
2018-02-25T02:47:14.883Z,0.00
2018-02-25T02:48:15.292Z,0.00
2018-02-25T02:49:15.705Z,0.00
2018-02-25T02:50:16.119Z,0.00
2018-02-25T02:51:16.531Z,0.00
2018-02-25T02:52:16.947Z,0.00
2018-02-25T02:53:17.363Z,0.00
2018-02-25T02:54:17.775Z,0.00
2018-02-25T02:55:18.197Z,0.00
2018-02-25T02:56:18.607Z,0.00
2018-02-25T02:57:19.019Z,0.00
2018-02-25T02:58:19.434Z,0.00
2018-02-25T02:59:19.853Z,0.00
2018-02-25T03:00:20.256Z,0.00
2018-02-25T03:01:20.673Z,0.00
2018-02-25T03:02:21.091Z,0.00
2018-02-25T03:03:21.503Z,0.00
2018-02-25T03:04:21.910Z,0.00
2018-02-25T03:05:22.326Z,0.00
2018-02-25T03:06:22.740Z,0.00
2018-02-25T03:07:23.152Z,0.00
2018-02-25T03:08:23.564Z,0.00
2018-02-25T03:09:23.978Z,0.00
2018-02-25T03:10:24.404Z,0.00
2018-02-25T03:11:24.806Z,0.00
2018-02-25T03:12:25.218Z,0.00
2018-02-25T03:13:25.643Z,0.00
2018-02-25T03:14:26.049Z,0.00
2018-02-25T03:15:26.466Z,0.00
2018-02-25T03:16:26.883Z,0.00
2018-02-25T03:17:27.291Z,0.00
2018-02-25T03:18:27.711Z,0.00
2018-02-25T03:19:28.118Z,0.00
2018-02-25T03:20:28.530Z,0.00
2018-02-25T03:21:28.946Z,0.00
2018-02-25T03:22:29.359Z,0.00
2018-02-25T03:23:29.769Z,0.00
2018-02-25T03:24:30.181Z,0.00
2018-02-25T03:25:30.596Z,0.00
2018-02-25T03:26:31.012Z,0.00
2018-02-25T03:27:31.422Z,0.00
2018-02-25T03:28:31.835Z,0.00
2018-02-25T03:29:32.250Z,0.00
2018-02-25T03:30:32.666Z,0.00
2018-02-25T03:31:33.079Z,0.00
2018-02-25T03:32:33.494Z,0.00
2018-02-25T03:33:33.912Z,0.00
2018-02-25T03:34:34.320Z,0.00
2018-02-25T03:35:34.735Z,0.00
2018-02-25T03:36:35.149Z,0.00
2018-02-25T03:37:35.559Z,0.00
2018-02-25T03:38:35.970Z,0.00
2018-02-25T03:39:36.384Z,0.00
2018-02-25T03:40:36.794Z,0.00
2018-02-25T03:41:37.229Z,0.00
2018-02-25T03:42:37.624Z,0.00
2018-02-25T03:43:38.044Z,0.00
2018-02-25T03:44:38.456Z,0.00
2018-02-25T03:45:38.863Z,0.00
2018-02-25T03:46:39.295Z,0.00
2018-02-25T03:47:39.689Z,0.00
2018-02-25T03:48:40.104Z,0.00
2018-02-25T03:49:40.518Z,0.00
2018-02-25T03:50:40.939Z,0.00
2018-02-25T03:51:41.351Z,0.00
2018-02-25T03:52:41.841Z,0.00
2018-02-25T03:53:42.173Z,0.00
2018-02-25T03:54:42.589Z,0.00
2018-02-25T03:55:43.000Z,0.00
2018-02-25T03:56:43.414Z,0.00
2018-02-25T03:57:43.831Z,0.00
2018-02-25T03:58:44.269Z,0.00
2018-02-25T03:59:44.654Z,0.00
2018-02-25T04:00:45.070Z,0.00
2018-02-25T04:01:45.481Z,0.00
2018-02-25T04:02:45.895Z,0.00
2018-02-25T04:03:46.311Z,0.00
2018-02-25T04:04:46.769Z,0.00
2018-02-25T04:05:47.141Z,0.00
2018-02-25T04:06:47.559Z,0.00
2018-02-25T04:07:47.965Z,0.00
2018-02-25T04:08:48.382Z,0.00
2018-02-25T04:09:48.792Z,0.00
2018-02-25T04:10:49.206Z,0.00
2018-02-25T04:11:49.622Z,0.00
2018-02-25T04:12:50.037Z,0.00
2018-02-25T04:13:50.459Z,0.00
2018-02-25T04:14:50.864Z,0.00
2018-02-25T04:15:51.276Z,0.00
2018-02-25T04:16:51.684Z,0.00
2018-02-25T04:17:52.104Z,0.00
2018-02-25T04:18:52.514Z,0.00
2018-02-25T04:19:52.932Z,0.00
2018-02-25T04:20:53.343Z,0.00
2018-02-25T04:21:53.759Z,0.00
2018-02-25T04:22:54.168Z,0.00
2018-02-25T04:23:54.582Z,0.00
2018-02-25T04:24:55.000Z,0.00
2018-02-25T04:25:55.415Z,0.00
2018-02-25T04:26:55.829Z,0.00
2018-02-25T04:27:56.241Z,0.00
2018-02-25T04:28:56.659Z,0.00
2018-02-25T04:29:57.072Z,0.00
2018-02-25T04:30:57.479Z,0.00
2018-02-25T04:31:57.894Z,0.00
2018-02-25T04:32:58.311Z,0.00
2018-02-25T04:33:58.726Z,0.00
2018-02-25T04:34:59.149Z,0.00
2018-02-25T04:35:59.546Z,0.00
2018-02-25T04:36:59.961Z,0.00
2018-02-25T04:38:00.375Z,0.00
2018-02-25T04:39:00.810Z,0.00
2018-02-25T04:40:01.202Z,0.00
2018-02-25T04:41:01.616Z,0.00
2018-02-25T04:42:02.041Z,0.00
2018-02-25T04:43:02.454Z,0.00
2018-02-25T04:44:02.856Z,0.00
2018-02-25T04:45:03.270Z,0.00
2018-02-25T04:46:03.688Z,0.00
2018-02-25T04:47:04.099Z,0.00
2018-02-25T04:48:04.515Z,0.00
2018-02-25T04:49:04.926Z,0.00
2018-02-25T04:50:05.339Z,0.00
2018-02-25T04:51:05.755Z,0.00
2018-02-25T04:52:06.171Z,0.00
2018-02-25T04:53:06.581Z,0.00
2018-02-25T04:54:06.995Z,0.00
2018-02-25T04:55:07.410Z,0.00
2018-02-25T04:56:07.833Z,0.00
2018-02-25T04:57:08.241Z,0.00
2018-02-25T04:58:08.659Z,0.00
2018-02-25T04:59:09.092Z,0.00
2018-02-25T05:00:09.484Z,0.00
2018-02-25T05:01:09.943Z,0.00
2018-02-25T05:02:10.307Z,0.00
2018-02-25T05:03:10.723Z,0.00
2018-02-25T05:04:11.139Z,0.00
2018-02-25T05:05:11.546Z,0.00
2018-02-25T05:06:11.961Z,0.00
2018-02-25T05:07:12.377Z,0.00
2018-02-25T05:08:12.784Z,0.00
2018-02-25T05:09:13.202Z,0.00
2018-02-25T05:10:13.615Z,0.00
2018-02-25T05:11:14.032Z,0.00
2018-02-25T05:12:14.441Z,0.00
2018-02-25T05:13:14.857Z,0.00
2018-02-25T05:14:15.274Z,0.00
2018-02-25T05:15:15.683Z,0.00
2018-02-25T05:16:16.094Z,0.00
2018-02-25T05:17:16.508Z,0.00
2018-02-25T05:18:16.927Z,0.00
2018-02-25T05:19:17.344Z,0.00
2018-02-25T05:20:17.745Z,0.00
2018-02-25T05:21:18.174Z,0.00
2018-02-25T05:22:18.620Z,0.00
2018-02-25T05:23:18.989Z,0.00
2018-02-25T05:24:19.407Z,0.00
2018-02-25T05:25:19.817Z,0.00
2018-02-25T05:26:20.230Z,0.00
2018-02-25T05:27:20.644Z,0.00
2018-02-25T05:28:21.057Z,0.00
2018-02-25T05:29:21.472Z,0.00
2018-02-25T05:30:21.885Z,0.00
2018-02-25T05:31:22.306Z,0.00
2018-02-25T05:32:22.714Z,0.00
2018-02-25T05:33:23.124Z,0.00
2018-02-25T05:34:23.539Z,0.00
2018-02-25T05:35:23.972Z,0.00
2018-02-25T05:36:24.377Z,0.00
2018-02-25T05:37:24.804Z,0.00
2018-02-25T05:38:25.197Z,0.00
2018-02-25T05:39:25.603Z,0.00
2018-02-25T05:40:26.018Z,0.00
2018-02-25T05:41:26.456Z,0.00
2018-02-25T05:42:26.853Z,0.00
2018-02-25T05:43:27.264Z,0.00
2018-02-25T05:44:27.669Z,0.00
2018-02-25T05:45:28.083Z,0.00
2018-02-25T05:46:28.497Z,0.00
2018-02-25T05:47:28.911Z,0.00
2018-02-25T05:48:29.322Z,0.00
2018-02-25T05:49:29.737Z,0.00
2018-02-25T05:50:30.160Z,0.00
2018-02-25T05:51:30.577Z,0.00
2018-02-25T05:52:30.973Z,0.00
2018-02-25T05:53:31.390Z,0.00
2018-02-25T05:54:31.805Z,0.00
2018-02-25T05:55:32.223Z,0.00
2018-02-25T05:56:32.628Z,0.00
2018-02-25T05:57:33.057Z,0.00
2018-02-25T05:58:33.452Z,0.00
2018-02-25T05:59:33.868Z,5.63
2018-02-25T06:00:34.371Z,5.63
2018-02-25T06:01:34.697Z,5.63
2018-02-25T06:02:35.112Z,5.63
2018-02-25T06:03:35.525Z,5.63
2018-02-25T06:04:35.943Z,5.63
2018-02-25T06:05:36.461Z,5.63
2018-02-25T06:06:36.768Z,5.63
2018-02-25T06:07:37.190Z,5.63
2018-02-25T06:08:37.607Z,11.25
2018-02-25T06:09:38.012Z,11.25
2018-02-25T06:10:38.414Z,11.25
2018-02-25T06:11:38.836Z,11.25
2018-02-25T06:12:39.316Z,11.25
2018-02-25T06:13:39.662Z,11.25
2018-02-25T06:14:40.076Z,11.25
2018-02-25T06:15:40.492Z,16.88
2018-02-25T06:16:40.902Z,16.88
2018-02-25T06:17:41.306Z,16.88
2018-02-25T06:18:41.791Z,16.88
2018-02-25T06:19:42.147Z,16.88
2018-02-25T06:20:42.548Z,16.88
2018-02-25T06:21:42.960Z,22.50
2018-02-25T06:22:43.381Z,22.50
2018-02-25T06:23:43.791Z,22.50
2018-02-25T06:24:44.214Z,22.50
2018-02-25T06:25:44.616Z,22.50
2018-02-25T06:26:45.030Z,28.13
2018-02-25T06:27:45.440Z,28.13
2018-02-25T06:28:45.856Z,28.13
2018-02-25T06:29:46.262Z,28.13
2018-02-25T06:30:46.690Z,28.13
2018-02-25T06:31:47.091Z,28.13
2018-02-25T06:32:47.507Z,33.75
2018-02-25T06:33:47.926Z,33.75
2018-02-25T06:34:48.336Z,33.75
2018-02-25T06:35:48.747Z,33.75
2018-02-25T06:36:49.163Z,33.75
2018-02-25T06:37:49.575Z,39.38
2018-02-25T06:38:49.987Z,39.38
2018-02-25T06:39:50.405Z,39.38
2018-02-25T06:40:50.821Z,39.38
2018-02-25T06:41:51.235Z,39.38
2018-02-25T06:42:51.642Z,45.00
2018-02-25T06:43:52.060Z,45.00
2018-02-25T06:44:52.472Z,45.00
2018-02-25T06:45:52.886Z,45.00
2018-02-25T06:46:53.308Z,45.00
2018-02-25T06:47:53.735Z,45.00
2018-02-25T06:48:54.123Z,50.63
2018-02-25T06:49:54.541Z,50.63
2018-02-25T06:50:54.968Z,50.63
2018-02-25T06:51:55.364Z,50.63
2018-02-25T06:52:55.777Z,50.63
2018-02-25T06:53:56.186Z,56.25
2018-02-25T06:54:56.623Z,56.25
2018-02-25T06:55:57.024Z,56.25
2018-02-25T06:56:57.428Z,56.25
2018-02-25T06:57:57.848Z,56.25
2018-02-25T06:58:58.258Z,56.25
2018-02-25T06:59:58.674Z,61.88
2018-02-25T07:00:59.089Z,61.88
2018-02-25T07:01:59.497Z,61.88
2018-02-25T07:02:59.914Z,61.88
2018-02-25T07:04:00.326Z,61.88
2018-02-25T07:05:00.736Z,67.50
2018-02-25T07:06:01.173Z,67.50
2018-02-25T07:07:01.573Z,67.50
2018-02-25T07:08:01.985Z,67.50
2018-02-25T07:09:02.400Z,67.50
2018-02-25T07:10:02.811Z,73.13
2018-02-25T07:11:03.225Z,73.13
2018-02-25T07:12:03.637Z,73.13
2018-02-25T07:13:04.054Z,73.13
2018-02-25T07:14:04.462Z,73.13
2018-02-25T07:15:04.881Z,78.75
2018-02-25T07:16:05.295Z,78.75
2018-02-25T07:17:05.708Z,78.75
2018-02-25T07:18:06.125Z,78.75
2018-02-25T07:19:06.533Z,78.75
2018-02-25T07:20:06.951Z,84.38
2018-02-25T07:21:07.362Z,84.38
2018-02-25T07:22:07.822Z,84.38
2018-02-25T07:23:08.191Z,84.38
2018-02-25T07:24:08.613Z,84.38
2018-02-25T07:25:09.020Z,90.00
2018-02-25T07:26:09.434Z,90.00
2018-02-25T07:27:09.843Z,90.00
2018-02-25T07:28:10.257Z,90.00
2018-02-25T07:29:10.671Z,90.00
2018-02-25T07:30:11.086Z,95.63
2018-02-25T07:31:11.499Z,95.63
2018-02-25T07:32:11.915Z,95.63
2018-02-25T07:33:12.328Z,101.25
2018-02-25T07:34:12.750Z,101.25
2018-02-25T07:35:13.157Z,101.25
2018-02-25T07:36:13.569Z,106.88
2018-02-25T07:37:13.982Z,106.88
2018-02-25T07:38:14.462Z,112.50
2018-02-25T07:39:14.815Z,112.50
2018-02-25T07:40:15.232Z,112.50
2018-02-25T07:41:15.642Z,118.13
2018-02-25T07:42:16.099Z,118.13
2018-02-25T07:43:16.472Z,118.13
2018-02-25T07:44:16.882Z,123.75
2018-02-25T07:45:17.304Z,123.75
2018-02-25T07:46:17.713Z,129.38
2018-02-25T07:47:18.128Z,129.38
2018-02-25T07:48:18.554Z,129.38
2018-02-25T07:49:18.957Z,129.38
2018-02-25T07:50:19.373Z,135.00
2018-02-25T07:51:19.779Z,135.00
2018-02-25T07:52:20.200Z,135.00
2018-02-25T07:53:20.615Z,140.63
2018-02-25T07:54:21.028Z,140.63
2018-02-25T07:55:21.451Z,140.63
2018-02-25T07:56:21.864Z,146.25
2018-02-25T07:57:22.272Z,146.25
2018-02-25T07:58:22.685Z,146.25
2018-02-25T07:59:23.101Z,146.25
2018-02-25T08:00:23.522Z,151.88
2018-02-25T08:01:23.935Z,151.88
2018-02-25T08:02:24.345Z,151.88
2018-02-25T08:03:24.787Z,151.88
2018-02-25T08:04:25.175Z,157.50
2018-02-25T08:05:25.623Z,157.50
2018-02-25T08:06:26.222Z,157.50
2018-02-25T08:07:26.417Z,157.50
2018-02-25T08:08:26.909Z,163.13
2018-02-25T08:09:27.284Z,163.13
2018-02-25T08:10:27.706Z,163.13
2018-02-25T08:11:28.100Z,163.13
2018-02-25T08:12:28.496Z,163.13
2018-02-25T08:13:28.935Z,163.13
2018-02-25T08:14:29.349Z,168.75
2018-02-25T08:15:29.781Z,168.75
2018-02-25T08:16:30.174Z,168.75
2018-02-25T08:17:30.616Z,168.75
2018-02-25T08:18:31.031Z,168.75
2018-02-25T08:19:31.468Z,163.13
2018-02-25T08:20:31.877Z,163.13
2018-02-25T08:21:32.280Z,163.13
2018-02-25T08:22:32.711Z,163.13
2018-02-25T08:23:33.089Z,163.13
2018-02-25T08:24:33.525Z,163.13
2018-02-25T08:25:33.941Z,163.13
2018-02-25T08:26:34.387Z,163.13
2018-02-25T08:27:34.794Z,163.13
2018-02-25T08:28:35.189Z,168.75
2018-02-25T08:29:35.585Z,168.75
2018-02-25T08:30:36.029Z,174.38
2018-02-25T08:31:36.428Z,180.00
2018-02-25T08:32:36.808Z,185.63
2018-02-25T08:33:37.247Z,185.63
2018-02-25T08:34:37.657Z,191.25
2018-02-25T08:35:38.070Z,196.88
2018-02-25T08:36:38.501Z,202.50
2018-02-25T08:37:38.919Z,208.13
2018-02-25T08:38:39.302Z,213.75
2018-02-25T08:39:39.804Z,219.38
2018-02-25T08:40:40.148Z,241.88
2018-02-25T08:41:40.574Z,241.88
2018-02-25T08:42:40.994Z,258.75
2018-02-25T08:43:41.390Z,270.00
2018-02-25T08:44:41.800Z,286.88
2018-02-25T08:45:42.214Z,298.13
2018-02-25T08:46:42.646Z,298.13
2018-02-25T08:47:43.063Z,303.75
2018-02-25T08:48:43.486Z,315.00
2018-02-25T08:49:43.899Z,326.25
2018-02-25T08:50:44.304Z,337.50
2018-02-25T08:51:44.748Z,354.38
2018-02-25T08:52:45.160Z,354.38
2018-02-25T08:53:45.561Z,360.00
2018-02-25T08:54:45.972Z,365.63
2018-02-25T08:55:46.400Z,365.63
2018-02-25T08:56:46.819Z,365.63
2018-02-25T08:57:47.219Z,360.00
2018-02-25T08:58:47.632Z,365.63
2018-02-25T08:59:48.059Z,371.25
2018-02-25T09:00:48.467Z,365.63
2018-02-25T09:01:48.888Z,371.25
2018-02-25T09:02:49.303Z,382.50
2018-02-25T09:03:49.781Z,365.63
2018-02-25T09:04:50.166Z,376.88
2018-02-25T09:05:50.573Z,376.88
2018-02-25T09:06:51.015Z,371.25
2018-02-25T09:07:51.429Z,348.75
2018-02-25T09:08:51.848Z,365.63
2018-02-25T09:09:52.282Z,348.75
2018-02-25T09:10:52.700Z,360.00
2018-02-25T09:11:53.112Z,365.63
2018-02-25T09:12:53.548Z,354.38
2018-02-25T09:13:53.966Z,354.38
2018-02-25T09:14:54.402Z,354.38
2018-02-25T09:15:54.812Z,343.13
2018-02-25T09:16:55.234Z,348.75
2018-02-25T09:17:55.655Z,348.75
2018-02-25T09:18:56.102Z,348.75
2018-02-25T09:19:56.543Z,348.75
2018-02-25T09:20:56.933Z,348.75
2018-02-25T09:21:57.359Z,331.88
2018-02-25T09:22:57.807Z,320.63
2018-02-25T09:23:58.212Z,343.13
2018-02-25T09:24:58.626Z,388.13
2018-02-25T09:25:59.064Z,348.75
2018-02-25T09:26:59.482Z,410.63
2018-02-25T09:27:59.915Z,405.00
2018-02-25T09:29:00.347Z,393.75
2018-02-25T09:30:00.765Z,371.25
2018-02-25T09:31:01.192Z,376.88
2018-02-25T09:32:01.637Z,371.25
2018-02-25T09:33:02.057Z,393.75
2018-02-25T09:34:02.482Z,427.50
2018-02-25T09:35:02.899Z,421.88
2018-02-25T09:36:03.310Z,393.75
2018-02-25T09:37:03.752Z,410.63
2018-02-25T09:38:04.169Z,416.25
2018-02-25T09:39:04.591Z,427.50
2018-02-25T09:40:05.016Z,438.75
2018-02-25T09:41:05.454Z,450.00
2018-02-25T09:42:05.895Z,450.00
2018-02-25T09:43:06.314Z,455.63
2018-02-25T09:44:06.733Z,427.50
2018-02-25T09:45:07.156Z,450.00
2018-02-25T09:46:07.579Z,495.00
2018-02-25T09:47:08.004Z,416.25
2018-02-25T09:48:08.436Z,450.00
2018-02-25T09:49:08.865Z,461.25
2018-02-25T09:50:09.308Z,427.50
2018-02-25T09:51:09.811Z,405.00
2018-02-25T09:52:10.157Z,405.00
2018-02-25T09:53:10.588Z,399.38
2018-02-25T09:54:11.104Z,410.63
2018-02-25T09:55:11.438Z,444.38
2018-02-25T09:56:11.879Z,450.00
2018-02-25T09:57:12.331Z,405.00
2018-02-25T09:58:12.755Z,405.00
2018-02-25T09:59:13.171Z,444.38
2018-02-25T10:00:13.605Z,399.38
2018-02-25T10:01:14.015Z,478.13
2018-02-25T10:02:14.434Z,455.63
2018-02-25T10:03:14.890Z,438.75
2018-02-25T10:04:15.287Z,450.00
2018-02-25T10:05:15.789Z,438.75
2018-02-25T10:06:16.146Z,421.88
2018-02-25T10:07:16.571Z,416.25
2018-02-25T10:08:17.033Z,421.88
2018-02-25T10:09:17.430Z,427.50
2018-02-25T10:10:17.867Z,421.88
2018-02-25T10:11:18.285Z,410.63
2018-02-25T10:12:18.705Z,410.63
2018-02-25T10:13:19.135Z,427.50
2018-02-25T10:14:19.564Z,461.25
2018-02-25T10:15:20.000Z,472.50
2018-02-25T10:16:20.410Z,450.00
2018-02-25T10:17:20.838Z,455.63
2018-02-25T10:18:21.285Z,427.50
2018-02-25T10:19:21.706Z,444.38
2018-02-25T10:20:22.122Z,472.50
2018-02-25T10:21:22.544Z,511.88
2018-02-25T10:22:22.968Z,528.75
2018-02-25T10:23:23.406Z,489.38
2018-02-25T10:24:23.815Z,495.00
2018-02-25T10:25:24.248Z,528.75
2018-02-25T10:26:24.678Z,500.63
2018-02-25T10:27:25.102Z,528.75
2018-02-25T10:28:25.577Z,483.75
2018-02-25T10:29:25.974Z,455.63
2018-02-25T10:30:26.393Z,466.88
2018-02-25T10:31:26.810Z,517.50
2018-02-25T10:32:27.236Z,410.63
2018-02-25T10:33:27.666Z,455.63
2018-02-25T10:34:28.114Z,416.25
2018-02-25T10:35:28.522Z,444.38
2018-02-25T10:36:28.955Z,461.25
2018-02-25T10:37:29.402Z,376.88
2018-02-25T10:38:29.819Z,382.50
2018-02-25T10:39:30.234Z,416.25
2018-02-25T10:40:30.672Z,354.38
2018-02-25T10:41:31.108Z,421.88
2018-02-25T10:42:31.523Z,416.25
2018-02-25T10:43:31.942Z,382.50
2018-02-25T10:44:32.382Z,331.88
2018-02-25T10:45:32.856Z,360.00
2018-02-25T10:46:33.270Z,348.75
2018-02-25T10:47:33.670Z,343.13
2018-02-25T10:48:34.104Z,360.00
2018-02-25T10:49:34.529Z,354.38
2018-02-25T10:50:34.952Z,354.38
2018-02-25T10:51:35.391Z,331.88
2018-02-25T10:52:35.815Z,354.38
2018-02-25T10:53:36.258Z,360.00
2018-02-25T10:54:36.680Z,360.00
2018-02-25T10:55:37.111Z,360.00
2018-02-25T10:56:37.540Z,360.00
2018-02-25T10:57:37.971Z,360.00
2018-02-25T10:58:38.401Z,360.00
2018-02-25T10:59:38.835Z,365.63
2018-02-25T11:00:39.272Z,365.63
2018-02-25T11:01:39.704Z,365.63
2018-02-25T11:02:40.148Z,360.00
2018-02-25T11:03:40.557Z,360.00
2018-02-25T11:04:40.989Z,360.00
2018-02-25T11:05:41.428Z,371.25
2018-02-25T11:06:41.852Z,360.00
2018-02-25T11:07:42.295Z,360.00
2018-02-25T11:08:42.729Z,360.00
2018-02-25T11:09:43.151Z,360.00
2018-02-25T11:10:43.580Z,360.00
2018-02-25T11:11:44.018Z,360.00
2018-02-25T11:12:44.497Z,360.00
2018-02-25T11:13:44.895Z,360.00
2018-02-25T11:14:45.326Z,360.00
2018-02-25T11:15:45.753Z,365.63
2018-02-25T11:16:46.190Z,365.63
2018-02-25T11:17:46.624Z,365.63
2018-02-25T11:18:47.064Z,365.63
2018-02-25T11:19:47.494Z,365.63
2018-02-25T11:20:47.949Z,371.25
2018-02-25T11:21:48.365Z,371.25
2018-02-25T11:22:48.803Z,371.25
2018-02-25T11:23:49.232Z,371.25
2018-02-25T11:24:49.681Z,371.25
2018-02-25T11:25:50.113Z,371.25
2018-02-25T11:26:50.628Z,376.88
2018-02-25T11:27:50.977Z,382.50
2018-02-25T11:28:51.415Z,388.13
2018-02-25T11:29:51.856Z,393.75
2018-02-25T11:30:52.390Z,399.38
2018-02-25T11:31:52.731Z,410.63
2018-02-25T11:32:53.156Z,438.75
2018-02-25T11:33:53.593Z,461.25
2018-02-25T11:34:54.055Z,495.00
2018-02-25T11:35:54.466Z,663.75
2018-02-25T11:36:54.910Z,1248.75
2018-02-25T11:37:55.340Z,1620.00
2018-02-25T11:38:55.818Z,1541.25
2018-02-25T11:39:56.226Z,1496.25
2018-02-25T11:40:56.652Z,1501.88
2018-02-25T11:41:57.104Z,1563.75
2018-02-25T11:42:57.531Z,1608.75
2018-02-25T11:43:57.947Z,1569.38
2018-02-25T11:44:58.398Z,1563.75
2018-02-25T11:45:58.828Z,1580.63
2018-02-25T11:46:59.274Z,1608.75
2018-02-25T11:47:59.709Z,1659.38
2018-02-25T11:49:00.134Z,1715.63
2018-02-25T11:50:00.566Z,1726.88
2018-02-25T11:51:01.010Z,1710.00
2018-02-25T11:52:01.444Z,945.00
2018-02-25T11:53:01.874Z,225.00
2018-02-25T11:54:02.334Z,191.25
2018-02-25T11:55:02.776Z,185.63
2018-02-25T11:56:03.179Z,180.00
2018-02-25T11:57:03.613Z,180.00
2018-02-25T11:58:04.049Z,174.38
2018-02-25T11:59:04.472Z,174.38
2018-02-25T12:00:04.921Z,174.38
2018-02-25T12:01:05.379Z,174.38
2018-02-25T12:02:05.791Z,174.38
2018-02-25T12:03:06.208Z,174.38
2018-02-25T12:04:06.619Z,174.38
2018-02-25T12:05:07.047Z,174.38
2018-02-25T12:06:07.488Z,168.75
2018-02-25T12:07:07.945Z,168.75
2018-02-25T12:08:08.323Z,168.75
2018-02-25T12:09:08.746Z,168.75
2018-02-25T12:10:09.181Z,168.75
2018-02-25T12:11:09.598Z,168.75
2018-02-25T12:12:10.030Z,168.75
2018-02-25T12:13:10.434Z,168.75
2018-02-25T12:14:10.923Z,168.75
2018-02-25T12:15:11.330Z,168.75
2018-02-25T12:16:11.712Z,163.13
2018-02-25T12:17:12.196Z,163.13
2018-02-25T12:18:12.571Z,163.13
2018-02-25T12:19:12.973Z,163.13
2018-02-25T12:20:13.424Z,163.13
2018-02-25T12:21:13.825Z,163.13
2018-02-25T12:22:14.240Z,163.13
2018-02-25T12:23:14.659Z,163.13
2018-02-25T12:24:15.109Z,163.13
2018-02-25T12:25:15.495Z,163.13
2018-02-25T12:26:15.949Z,163.13
2018-02-25T12:27:16.351Z,163.13
2018-02-25T12:28:16.791Z,174.38
2018-02-25T12:29:17.196Z,180.00
2018-02-25T12:30:17.617Z,180.00
2018-02-25T12:31:18.029Z,180.00
2018-02-25T12:32:18.445Z,174.38
2018-02-25T12:33:18.867Z,157.50
2018-02-25T12:34:19.330Z,157.50
2018-02-25T12:35:19.706Z,157.50
2018-02-25T12:36:20.122Z,157.50
2018-02-25T12:37:20.566Z,157.50
2018-02-25T12:38:20.973Z,151.88
2018-02-25T12:39:21.399Z,151.88
2018-02-25T12:40:21.802Z,151.88
2018-02-25T12:41:22.220Z,151.88
2018-02-25T12:42:22.648Z,151.88
2018-02-25T12:43:23.064Z,151.88
2018-02-25T12:44:23.479Z,151.88
2018-02-25T12:45:23.902Z,157.50
2018-02-25T12:46:24.318Z,151.88
2018-02-25T12:47:24.743Z,151.88
2018-02-25T12:48:25.156Z,151.88
2018-02-25T12:49:25.586Z,151.88
2018-02-25T12:50:25.995Z,151.88
2018-02-25T12:51:26.415Z,157.50
2018-02-25T12:52:26.847Z,157.50
2018-02-25T12:53:27.250Z,157.50
2018-02-25T12:54:27.674Z,157.50
2018-02-25T12:55:28.095Z,157.50
2018-02-25T12:56:28.510Z,157.50
2018-02-25T12:57:28.929Z,163.13
2018-02-25T12:58:29.353Z,157.50